createdAt,value
2019-05-14T00:46:31.610Z,2.16
2019-05-14T00:56:33.326Z,2.14
2019-05-14T01:06:34.755Z,2.15
2019-05-14T01:16:36.197Z,2.08
2019-05-14T01:26:37.621Z,1.79
2019-05-14T01:36:41.200Z,1.42
2019-05-14T01:46:42.552Z,1.26
2019-05-14T01:56:44.124Z,1.29
2019-05-14T02:06:45.713Z,1.10
2019-05-14T02:16:47.173Z,1.34
2019-05-14T02:26:48.577Z,1.17
2019-05-14T02:36:50.050Z,1.07
2019-05-14T02:46:52.669Z,1.15
2019-05-14T02:56:54.102Z,3.11
2019-05-14T03:06:55.538Z,1.94
2019-05-14T03:16:59.434Z,1.44
2019-05-14T03:27:00.821Z,1.14
2019-05-14T03:37:03.859Z,0.94
2019-05-14T03:47:09.987Z,0.93
2019-05-14T03:57:09.817Z,1.73
2019-05-14T04:07:12.481Z,1.25
2019-05-14T04:17:31.667Z,1.24
2019-05-14T04:27:23.818Z,2.96
2019-05-14T04:37:28.810Z,2.11
2019-05-14T04:47:36.007Z,2.07
2019-05-14T04:57:33.044Z,2.15
2019-05-14T05:07:34.460Z,2.76
2019-05-14T05:17:44.207Z,2.95
2019-05-14T05:27:40.395Z,3.27
2019-05-14T05:37:41.825Z,4.46
2019-05-14T05:47:54.433Z,5.07
2019-05-14T05:57:49.059Z,25.37
2019-05-14T06:07:50.065Z,26.79
2019-05-14T06:17:51.697Z,31.60
2019-05-14T06:27:53.313Z,23.25
2019-05-14T06:37:55.040Z,23.29
2019-05-14T06:47:56.509Z,23.14
2019-05-14T06:57:58.499Z,21.81
2019-05-14T07:08:00.114Z,22.02
2019-05-14T07:18:01.545Z,23.50
2019-05-14T07:28:03.117Z,22.07
2019-05-14T07:38:04.540Z,20.31
2019-05-14T07:48:05.988Z,20.21
2019-05-14T07:58:09.459Z,23.03
2019-05-14T08:08:11.085Z,19.07
2019-05-14T08:18:14.372Z,19.90
2019-05-14T08:28:18.305Z,20.31
2019-05-14T08:38:19.486Z,19.94
2019-05-14T08:48:20.935Z,15.88
2019-05-14T08:58:22.607Z,24.53
2019-05-14T09:08:24.227Z,21.87
2019-05-14T09:18:25.699Z,20.10
2019-05-14T09:28:28.475Z,20.51
2019-05-14T09:38:30.184Z,15.10
2019-05-14T09:48:31.614Z,21.06
2019-05-14T09:58:34.376Z,15.48
2019-05-14T10:08:35.991Z,14.21
2019-05-14T10:18:38.011Z,17.44
2019-05-14T10:28:43.424Z,13.22
2019-05-14T10:38:44.406Z,15.21
2019-05-14T10:48:46.043Z,12.95
2019-05-14T10:58:49.110Z,13.38
2019-05-14T11:08:50.935Z,21.23
2019-05-14T11:18:52.474Z,19.51
2019-05-14T11:28:53.924Z,14.91
2019-05-14T11:38:55.450Z,16.15
2019-05-14T11:48:59.437Z,18.19
2019-05-14T11:59:00.377Z,15.87
2019-05-14T12:09:04.614Z,14.58
2019-05-14T12:19:06.592Z,15.46
2019-05-14T12:29:09.888Z,13.75
2019-05-14T12:39:11.405Z,13.71
2019-05-14T12:49:13.045Z,16.18
2019-05-14T12:59:14.599Z,16.31
2019-05-14T13:09:20.792Z,14.12
2019-05-14T13:19:19.509Z,12.88
2019-05-14T13:29:21.063Z,14.93
2019-05-14T13:39:22.498Z,13.35
2019-05-14T13:49:23.920Z,12.17
2019-05-14T13:59:25.497Z,12.84
2019-05-14T14:09:28.415Z,15.34
2019-05-14T14:19:30.504Z,15.53
2019-05-14T14:29:32.158Z,16.83
2019-05-14T14:39:34.737Z,15.39
2019-05-14T14:49:36.196Z,15.36
2019-05-14T14:59:39.166Z,16.68
2019-05-14T15:09:40.830Z,13.86
2019-05-14T15:19:43.910Z,15.48
2019-05-14T15:29:45.502Z,16.09
2019-05-14T15:39:49.070Z,12.39
2019-05-14T15:49:52.967Z,14.37
2019-05-14T15:59:54.480Z,14.74
2019-05-14T16:09:55.935Z,15.30
2019-05-14T16:19:57.699Z,15.04
2019-05-14T16:29:59.172Z,14.52
2019-05-14T16:40:00.738Z,13.73
2019-05-14T16:50:08.692Z,14.70
2019-05-14T17:00:10.268Z,14.19
2019-05-14T17:10:12.873Z,13.33
2019-05-14T17:20:14.566Z,13.64
2019-05-14T17:30:18.249Z,12.07
2019-05-14T17:40:19.792Z,11.73
2019-05-14T17:50:21.248Z,12.39
2019-05-14T18:00:23.307Z,11.99
2019-05-14T18:10:25.085Z,10.90
2019-05-14T18:20:28.663Z,10.07
2019-05-14T18:30:30.088Z,9.51
2019-05-14T18:40:31.537Z,9.01
2019-05-14T18:50:33.210Z,8.64
2019-05-14T19:00:34.870Z,8.67
2019-05-14T19:10:39.029Z,8.41
2019-05-14T19:20:40.002Z,8.19
2019-05-14T19:30:41.867Z,7.87
2019-05-14T19:40:43.465Z,7.28
2019-05-14T19:50:44.885Z,6.95
2019-05-14T20:00:48.692Z,6.07
2019-05-14T20:10:49.908Z,5.55
2019-05-14T20:20:51.948Z,5.54
2019-05-14T20:30:53.364Z,4.93
2019-05-14T20:40:54.933Z,4.66
2019-05-14T20:50:58.452Z,4.35
2019-05-14T21:01:00.138Z,3.99
2019-05-14T21:11:01.892Z,3.75
2019-05-14T21:21:03.421Z,3.33
2019-05-14T21:31:05.052Z,2.91
2019-05-14T21:41:06.477Z,2.62
2019-05-14T21:51:08.741Z,2.65
2019-05-14T22:01:10.577Z,2.40
2019-05-14T22:11:12.109Z,2.14
2019-05-14T22:21:13.545Z,2.24
2019-05-14T22:31:17.085Z,2.14
2019-05-14T22:41:18.597Z,2.14
2019-05-14T22:51:20.233Z,1.96
2019-05-14T23:01:21.757Z,2.71
2019-05-14T23:11:23.287Z,3.74
2019-05-14T23:21:24.715Z,3.62
2019-05-14T23:31:28.342Z,3.39
2019-05-14T23:41:29.683Z,2.92
2019-05-14T23:51:31.259Z,2.71
